Mill Rose Farm Restricted Landing Area

Jump to: basic info | weather | runways | comments

Related pages: nearby airports | nearby navaids | notams | map

Basic information (top)

Codes: IL68
Location: lon 42.077202, lat -88.159798, elev 850 ft / 259 m msl
Status: small_airport

Weather (top)

Current conditions for Dupage Airport 11nm (20km) SSW (rec'd 2014/04/16 14:52Z):

KDPA 161452Z 15015G19KT 10SM CLR 04/M04 A3028 RMK AO2 SLP261 T00441039 50007

Airport forecast for Dupage Airport 11nm (20km) SSW (rec'd 2014/04/16 12:33Z):

TAF KDPA 161130Z 1612/1712 16009KT P6SM SCT100 
     FM161500 17015G24KT P6SM SCT070 BKN100 
     FM161900 16020G28KT P6SM BKN120 
     FM170300 18015KT P6SM SCT050 BKN120

Runways (top)

N/S: 2,500 x 100 ft (762 x 30 m) — grass — lighted

Latest comments (top)

No comments yet for Mill Rose Farm Restricted Landing Area

More... (top)

See also NOTAMs and nearby airports and navaids, or visit the Mill Rose Farm Restricted Landing Area page at the main OurAirports website..